Time;durP1;ratioP1;P1;durP2;ratioP2;P2;SDS_P1;SDS_P2;PMS_P1;PMS_P2;Temp;Humidity;BMP_temperature;BMP_pressure;BME280_temperature;BME280_humidity;BME280_pressure;Samples;Min_cycle;Max_cycle;Signal;HPM_P1;HPM_P2
2022/12/26 00:02:00;;;;;;;2.67;2.30;;;;;8.80;93946.00;;;;7397542;19;20153;-76
2022/12/26 00:04:27;;;;;;;3.43;1.97;;;;;9.70;93915.00;;;;7398059;19;20135;-76
2022/12/26 00:07:20;;;;;;;3.50;2.23;;;;;9.80;93916.00;;;;7396948;19;20129;-77
2022/12/26 00:09:48;;;;;;;3.43;1.87;;;;;10.20;93921.00;;;;7396366;19;20302;-76
2022/12/26 00:12:24;;;;;;;1.90;1.60;;;;;10.40;93914.00;;;;7398420;19;20152;-77
2022/12/26 00:14:52;;;;;;;2.35;1.48;;;;;10.80;93922.00;;;;7396772;19;20666;-76
2022/12/26 00:17:23;;;;;;;1.50;1.40;;;;;10.80;93930.00;;;;7398475;19;20160;-77
2022/12/26 00:19:57;;;;;;;2.08;1.70;;;;;10.80;93928.00;;;;7399421;19;20132;-78
2022/12/26 00:22:36;;;;;;;2.80;1.77;;;;;11.00;93916.00;;;;7397611;19;20145;-77
2022/12/26 00:25:11;;;;;;;1.75;1.60;;;;;11.10;93924.00;;;;7396737;19;20204;-77
2022/12/26 00:27:38;;;;;;;2.10;1.40;;;;;11.10;93920.00;;;;7400019;19;20113;-76
2022/12/26 00:30:08;;;;;;;3.28;1.67;;;;;11.10;93939.00;;;;7397709;19;20129;-78
2022/12/26 00:32:42;;;;;;;3.70;1.65;;;;;10.50;93929.00;;;;7399319;19;20595;-77
2022/12/26 00:35:09;;;;;;;2.45;1.88;;;;;10.50;93926.00;;;;7398461;19;20534;-77
2022/12/26 00:37:37;;;;;;;3.42;2.15;;;;;9.80;93910.00;;;;7398760;19;20137;-78
2022/12/26 00:40:11;;;;;;;1.95;1.60;;;;;10.00;93913.00;;;;7398650;19;20148;-77
2022/12/26 00:42:39;;;;;;;2.70;2.23;;;;;10.40;93909.00;;;;7397644;19;20168;-77
2022/12/26 00:45:06;;;;;;;3.60;1.75;;;;;10.60;93909.00;;;;7397456;19;20208;-76
2022/12/26 00:47:41;;;;;;;5.97;2.07;;;;;10.70;93915.00;;;;7398655;19;20150;-77
2022/12/26 00:50:09;;;;;;;1.98;1.50;;;;;10.70;93916.00;;;;7394189;19;20129;-77
2022/12/26 00:52:42;;;;;;;3.28;1.70;;;;;10.60;93911.00;;;;7398688;19;20124;-76
2022/12/26 00:55:18;;;;;;;1.98;1.60;;;;;10.90;93926.00;;;;7396080;19;20144;-77
2022/12/26 00:57:46;;;;;;;2.35;1.67;;;;;11.00;93930.00;;;;7397441;19;20591;-77
2022/12/26 01:00:14;;;;;;;5.05;2.42;;;;;11.10;93935.00;;;;7396858;19;20147;-77
2022/12/26 01:02:48;;;;;;;2.42;1.50;;;;;10.70;93928.00;;;;7397075;19;20195;-77
2022/12/26 01:05:17;;;;;;;2.75;1.67;;;;;11.00;93926.00;;;;7396642;19;20145;-74
2022/12/26 01:07:45;;;;;;;6.20;1.92;;;;;11.00;93927.00;;;;7395771;19;20161;-75
2022/12/26 01:10:44;;;;;;;3.03;1.60;;;;;11.10;93925.00;;;;7397699;19;20607;-77
2022/12/26 01:13:12;;;;;;;3.33;1.88;;;;;11.00;93935.00;;;;7396510;19;20156;-75
2022/12/26 01:15:49;;;;;;;1.77;1.60;;;;;11.10;93926.00;;;;7394799;19;20149;-77
2022/12/26 01:18:17;;;;;;;4.55;1.60;;;;;11.00;93922.00;;;;7395369;19;20153;-75
2022/12/26 01:20:44;;;;;;;3.80;1.90;;;;;10.90;93915.00;;;;7398021;19;20522;-75
2022/12/26 01:23:25;;;;;;;2.67;1.63;;;;;10.20;93911.00;;;;7396397;19;20623;-75
2022/12/26 01:25:52;;;;;;;2.55;1.70;;;;;10.30;93931.00;;;;7396854;19;20124;-75
2022/12/26 01:28:42;;;;;;;3.22;1.67;;;;;10.60;93920.00;;;;7397399;19;20534;-75
2022/12/26 01:31:09;;;;;;;3.25;2.00;;;;;10.60;93924.00;;;;7397494;19;20160;-75
2022/12/26 01:33:44;;;;;;;2.40;1.85;;;;;10.50;93932.00;;;;7395857;19;20200;-75
2022/12/26 01:36:12;;;;;;;3.05;1.60;;;;;10.70;93931.00;;;;7396590;19;20121;-75
2022/12/26 01:38:40;;;;;;;3.85;1.80;;;;;10.90;93943.00;;;;7394211;19;20196;-74
2022/12/26 01:41:18;;;;;;;5.10;2.00;;;;;11.00;93926.00;;;;7396702;19;20619;-75
2022/12/26 01:43:51;;;;;;;2.13;1.65;;;;;10.90;93934.00;;;;7395576;19;20228;-75
2022/12/26 01:46:34;;;;;;;2.25;1.63;;;;;11.10;93935.00;;;;7396002;19;20601;-75
2022/12/26 01:49:30;;;;;;;2.95;1.65;;;;;10.70;93941.00;;;;7397271;19;20153;-75
2022/12/26 01:52:08;;;;;;;1.63;1.52;;;;;10.60;93938.00;;;;7396727;19;20142;-75
2022/12/26 01:54:39;;;;;;;2.22;1.60;;;;;10.90;93942.00;;;;7395931;19;20162;-76
2022/12/26 01:57:23;;;;;;;3.90;1.65;;;;;11.00;93950.00;;;;7392476;19;20542;-75
2022/12/26 01:59:52;;;;;;;1.65;1.30;;;;;11.00;93944.00;;;;7395017;19;20133;-75
2022/12/26 02:02:28;;;;;;;3.60;1.52;;;;;11.00;93936.00;;;;7402562;19;20152;-76
2022/12/26 02:07:49;;;;;;;2.83;1.70;;;;;11.10;93939.00;;;;7401215;19;20125;-75
2022/12/26 02:10:21;;;;;;;2.28;1.40;;;;;10.90;93942.00;;;;7403021;19;20133;-75
2022/12/26 02:12:49;;;;;;;4.13;1.63;;;;;10.80;93942.00;;;;7402641;19;20153;-76
2022/12/26 02:15:24;;;;;;;2.70;1.73;;;;;10.70;93950.00;;;;7401686;19;20183;-76
2022/12/26 02:17:51;;;;;;;2.50;1.50;;;;;10.70;93949.00;;;;7399971;19;20180;-75
2022/12/26 02:20:25;;;;;;;2.33;1.50;;;;;10.70;93952.00;;;;7402132;19;20132;-75
2022/12/26 02:23:42;;;;;;;5.22;1.50;;;;;10.80;93954.00;;;;7400402;19;20156;-75
2022/12/26 02:26:22;;;;;;;2.25;1.85;;;;;10.90;93971.00;;;;7401390;19;20156;-76
2022/12/26 02:29:16;;;;;;;4.22;1.45;;;;;11.00;93969.00;;;;7402438;19;20184;-75
2022/12/26 02:32:35;;;;;;;2.95;1.67;;;;;11.00;93959.00;;;;7398233;19;20153;-75
2022/12/26 02:35:20;;;;;;;2.10;1.55;;;;;11.10;93945.00;;;;7400397;19;20133;-75
2022/12/26 02:38:05;;;;;;;5.15;1.80;;;;;11.20;93959.00;;;;7399349;19;20647;-75
2022/12/26 02:41:04;;;;;;;3.78;1.60;;;;;11.20;93962.00;;;;7402138;19;20592;-75
2022/12/26 02:43:50;;;;;;;2.20;1.60;;;;;10.90;93963.00;;;;7402335;19;20543;-75
2022/12/26 03:15:00;;;;;;;2.65;1.60;;;;;11.10;93945.00;;;;7402398;19;20133;-76
2022/12/26 03:17:41;;;;;;;2.35;1.45;;;;;11.00;93949.00;;;;7398775;19;20137;-75
2022/12/26 03:20:14;;;;;;;5.15;1.70;;;;;11.00;93952.00;;;;7402109;19;20133;-76
2022/12/26 03:23:04;;;;;;;2.42;1.60;;;;;10.90;93947.00;;;;7398092;19;20204;-75
2022/12/26 03:28:47;;;;;;;2.58;1.60;;;;;11.10;93933.00;;;;7401061;19;20210;-75
2022/12/26 03:31:16;;;;;;;2.28;1.80;;;;;11.10;93923.00;;;;7399317;19;20597;-75
2022/12/26 03:37:16;;;;;;;2.17;1.52;;;;;11.30;93924.00;;;;7400724;19;20136;-75
2022/12/26 04:20:33;;;;;;;3.35;1.85;;;;;11.00;93948.00;;;;7396269;19;20159;-75
2022/12/26 04:44:07;;;;;;;2.15;1.55;;;;;10.60;93931.00;;;;7398080;19;20133;-75
2022/12/26 04:46:40;;;;;;;2.22;1.67;;;;;10.40;93935.00;;;;7397253;19;20151;-76
2022/12/26 04:52:11;;;;;;;3.70;1.80;;;;;10.50;93964.00;;;;7398325;19;20631;-75
2022/12/26 04:54:45;;;;;;;2.10;1.57;;;;;10.50;93951.00;;;;7398274;19;20168;-75
2022/12/26 04:57:14;;;;;;;6.77;2.00;;;;;10.50;93956.00;;;;7395308;19;20144;-77
2022/12/26 04:59:41;;;;;;;3.72;2.00;;;;;10.50;93957.00;;;;7398130;19;20188;-75
2022/12/26 05:10:45;;;;;;;4.55;1.92;;;;;10.30;93957.00;;;;7397292;19;20136;-74
2022/12/26 05:13:19;;;;;;;3.90;1.98;;;;;10.30;93969.00;;;;7398108;19;20129;-75
2022/12/26 05:30:39;;;;;;;2.55;2.13;;;;;10.00;94000.00;;;;7397642;19;20615;-75
2022/12/26 05:36:00;;;;;;;3.08;2.00;;;;;10.10;93995.00;;;;7399417;19;20133;-74
2022/12/26 05:38:28;;;;;;;4.80;2.17;;;;;10.20;93986.00;;;;7402190;19;20192;-74
2022/12/26 05:40:55;;;;;;;3.25;2.00;;;;;10.10;93977.00;;;;7404486;19;20129;-75
2022/12/26 05:43:30;;;;;;;4.50;2.38;;;;;10.10;93974.00;;;;7402084;19;20158;-75
2022/12/26 05:45:57;;;;;;;4.93;2.60;;;;;10.10;93967.00;;;;7394803;19;20176;-75
2022/12/26 05:48:25;;;;;;;3.00;2.20;;;;;10.10;93974.00;;;;7403946;19;20241;-74
2022/12/26 05:51:02;;;;;;;4.55;2.25;;;;;10.00;93973.00;;;;7402907;19;20194;-74
2022/12/26 05:53:31;;;;;;;4.68;2.47;;;;;9.80;93970.00;;;;7402713;19;20152;-73
2022/12/26 05:56:06;;;;;;;3.03;2.50;;;;;9.80;93966.00;;;;7404265;19;20443;-74
2022/12/26 05:58:41;;;;;;;5.47;2.57;;;;;9.90;93955.00;;;;7400590;19;20160;-75
2022/12/26 06:01:18;;;;;;;5.53;2.40;;;;;10.00;93964.00;;;;7402101;19;20203;-75
2022/12/26 06:03:56;;;;;;;2.30;2.10;;;;;10.00;93956.00;;;;7403383;19;20157;-75
2022/12/26 06:06:25;;;;;;;3.92;2.40;;;;;9.90;93955.00;;;;7402259;19;20647;-75
2022/12/26 06:09:00;;;;;;;4.93;2.70;;;;;9.90;93961.00;;;;7402313;19;20615;-74
2022/12/26 06:11:27;;;;;;;4.10;2.25;;;;;9.90;93961.00;;;;7404711;19;20125;-76
2022/12/26 06:13:55;;;;;;;4.03;2.20;;;;;9.70;93955.00;;;;7403755;19;20133;-75
2022/12/26 06:16:30;;;;;;;3.47;2.13;;;;;9.80;93958.00;;;;7401362;19;20218;-76
2022/12/26 06:18:57;;;;;;;5.18;2.42;;;;;9.70;93945.00;;;;7400936;19;20667;-75
2022/12/26 06:21:25;;;;;;;4.50;2.57;;;;;9.50;93954.00;;;;7403398;19;20614;-74
2022/12/26 06:24:05;;;;;;;3.03;2.13;;;;;9.70;93956.00;;;;7402558;19;20144;-76
2022/12/26 06:26:33;;;;;;;2.53;2.33;;;;;9.80;93945.00;;;;7403545;19;20469;-75
2022/12/26 06:29:08;;;;;;;4.90;2.30;;;;;9.80;93944.00;;;;7402031;19;20619;-75
2022/12/26 06:31:36;;;;;;;3.17;2.60;;;;;9.80;93944.00;;;;7401104;19;20600;-76
2022/12/26 06:34:03;;;;;;;2.63;2.17;;;;;9.80;93943.00;;;;7401487;19;20173;-75
2022/12/26 06:36:38;;;;;;;2.97;2.35;;;;;9.90;93957.00;;;;7400941;19;20156;-76
2022/12/26 06:39:06;;;;;;;3.65;2.33;;;;;9.80;93956.00;;;;7398701;19;20153;-76
2022/12/26 06:41:33;;;;;;;3.70;2.30;;;;;9.90;93957.00;;;;7402733;19;20129;-76
2022/12/26 06:44:08;;;;;;;5.47;2.40;;;;;9.70;93976.00;;;;7402292;19;20623;-76
2022/12/26 06:46:44;;;;;;;2.97;2.20;;;;;9.80;93978.00;;;;7400609;19;20128;-76
2022/12/26 06:49:18;;;;;;;4.57;2.13;;;;;9.70;93969.00;;;;7397788;19;20163;-75
2022/12/26 06:51:46;;;;;;;2.83;2.10;;;;;9.80;93958.00;;;;7401886;19;20480;-74
2022/12/26 06:54:13;;;;;;;2.67;2.27;;;;;9.70;93983.00;;;;7399533;19;20180;-75
2022/12/26 06:56:47;;;;;;;2.70;2.20;;;;;9.70;93979.00;;;;7400331;19;20144;-74
2022/12/26 06:59:15;;;;;;;4.43;2.23;;;;;9.80;93974.00;;;;7398557;19;20233;-75
2022/12/26 07:01:42;;;;;;;2.00;1.80;;;;;9.80;93975.00;;;;7399740;19;20479;-74
2022/12/26 07:04:17;;;;;;;4.75;2.00;;;;;9.60;93971.00;;;;7403122;19;20149;-74
2022/12/26 07:06:46;;;;;;;4.07;2.30;;;;;9.60;93966.00;;;;7403178;19;20125;-74
2022/12/26 07:09:16;;;;;;;5.57;2.03;;;;;9.60;93965.00;;;;7401873;19;20173;-74
2022/12/26 07:11:59;;;;;;;3.20;2.70;;;;;9.30;93968.00;;;;7400130;19;20573;-73
2022/12/26 07:14:31;;;;;;;4.63;2.45;;;;;9.20;93976.00;;;;7402162;19;20238;-74
2022/12/26 07:17:05;;;;;;;4.40;2.60;;;;;9.20;93986.00;;;;7400875;19;20140;-73
2022/12/26 07:19:35;;;;;;;3.80;2.93;;;;;9.10;93977.00;;;;7400418;19;20144;-75
2022/12/26 07:22:05;;;;;;;4.07;2.77;;;;;9.10;93984.00;;;;7400410;19;20167;-73
2022/12/26 07:24:45;;;;;;;5.83;2.80;;;;;9.20;93986.00;;;;7403119;19;20124;-74
2022/12/26 07:27:13;;;;;;;4.00;2.93;;;;;9.10;93982.00;;;;7400917;19;20598;-74
2022/12/26 07:29:48;;;;;;;4.23;2.57;;;;;9.20;93976.00;;;;7402219;19;20191;-74
2022/12/26 07:32:16;;;;;;;3.30;2.70;;;;;9.10;93994.00;;;;7400045;19;20598;-74
2022/12/26 07:34:43;;;;;;;4.10;2.53;;;;;9.10;94001.00;;;;7396852;19;20150;-75
2022/12/26 07:37:17;;;;;;;2.57;2.37;;;;;9.10;93993.00;;;;7398178;19;20121;-73
2022/12/26 07:39:44;;;;;;;6.40;2.73;;;;;9.10;93989.00;;;;7398275;19;20588;-74
2022/12/26 07:42:13;;;;;;;5.13;2.90;;;;;9.00;93997.00;;;;7395411;19;20148;-74
2022/12/26 07:44:47;;;;;;;5.27;2.90;;;;;9.10;93987.00;;;;7396808;19;20129;-73
2022/12/26 07:49:54;;;;;;;3.57;2.97;;;;;9.00;93990.00;;;;7360966;19;20188;-72
2022/12/26 07:55:34;;;;;;;6.30;3.07;;;;;9.00;94008.00;;;;7376206;19;20160;-74
2022/12/26 07:58:08;;;;;;;4.60;3.07;;;;;8.90;94010.00;;;;7389336;19;20204;-74
2022/12/26 08:03:52;;;;;;;3.70;2.67;;;;;8.90;94004.00;;;;7355948;19;20255;-74
2022/12/26 08:06:29;;;;;;;4.50;3.00;;;;;9.00;94004.00;;;;7387631;19;20634;-74
2022/12/26 08:08:56;;;;;;;6.37;3.10;;;;;9.00;94005.00;;;;7395024;19;20156;-75
2022/12/26 08:11:24;;;;;;;4.40;2.80;;;;;8.90;94008.00;;;;7396314;19;20133;-75
2022/12/26 08:14:02;;;;;;;5.77;3.10;;;;;9.00;94020.00;;;;7397445;19;20139;-74
2022/12/26 08:16:30;;;;;;;4.33;3.07;;;;;8.90;94029.00;;;;7395919;19;20157;-73
2022/12/26 08:19:01;;;;;;;4.53;2.80;;;;;8.80;94030.00;;;;7394826;19;20167;-74
2022/12/26 08:21:35;;;;;;;6.00;2.90;;;;;8.90;94047.00;;;;7397217;19;20175;-74
2022/12/26 08:24:03;;;;;;;4.63;3.03;;;;;8.80;94045.00;;;;7396345;19;20220;-74
2022/12/26 08:26:31;;;;;;;4.83;3.20;;;;;8.80;94052.00;;;;7394137;19;20206;-75
2022/12/26 08:29:05;;;;;;;3.83;2.80;;;;;8.90;94070.00;;;;7396486;19;20586;-73
2022/12/26 08:31:46;;;;;;;5.17;3.40;;;;;8.80;94073.00;;;;7371228;19;20199;-72
2022/12/26 08:34:20;;;;;;;5.57;3.30;;;;;8.80;94083.00;;;;7389995;19;20158;-71
2022/12/26 08:36:50;;;;;;;4.82;3.13;;;;;8.80;94082.00;;;;7384004;19;20165;-70
2022/12/26 08:39:18;;;;;;;5.15;3.45;;;;;8.80;94097.00;;;;7392442;19;20155;-71
2022/12/26 08:41:52;;;;;;;5.23;3.20;;;;;8.80;94102.00;;;;7393422;19;20155;-72
2022/12/26 08:44:20;;;;;;;4.85;3.38;;;;;8.90;94107.00;;;;7391263;19;20639;-72
2022/12/26 08:46:56;;;;;;;6.13;3.47;;;;;8.90;94109.00;;;;7394688;19;20144;-72
2022/12/26 08:49:30;;;;;;;4.50;3.17;;;;;8.90;94103.00;;;;7394959;19;20144;-72
2022/12/26 08:51:58;;;;;;;5.43;3.23;;;;;9.00;94107.00;;;;7392218;19;20368;-73
2022/12/26 08:54:25;;;;;;;4.40;3.60;;;;;8.90;94108.00;;;;7391131;19;20615;-74
2022/12/26 08:57:01;;;;;;;4.10;3.30;;;;;9.10;94104.00;;;;7387857;19;20219;-74
2022/12/26 08:59:28;;;;;;;5.00;2.93;;;;;9.00;94099.00;;;;7390270;19;20737;-74
2022/12/26 09:01:56;;;;;;;5.87;2.87;;;;;9.00;94111.00;;;;7392841;19;20129;-74
2022/12/26 09:04:31;;;;;;;3.70;2.72;;;;;9.10;94113.00;;;;7393928;19;20782;-73
2022/12/26 09:07:00;;;;;;;4.13;2.80;;;;;9.10;94114.00;;;;7387584;19;20623;-74
2022/12/26 09:09:28;;;;;;;3.80;2.73;;;;;9.10;94118.00;;;;7390931;19;20583;-73
2022/12/26 09:12:02;;;;;;;4.23;2.23;;;;;9.00;94120.00;;;;7393088;19;20148;-74
2022/12/26 09:14:29;;;;;;;3.20;2.37;;;;;8.90;94112.00;;;;7397735;19;20143;-74
2022/12/26 09:16:57;;;;;;;3.97;2.73;;;;;9.00;94108.00;;;;7397004;19;20156;-73
2022/12/26 09:19:31;;;;;;;4.75;2.90;;;;;9.10;94108.00;;;;7396631;19;20145;-74
2022/12/26 09:24:59;;;;;;;2.67;2.23;;;;;8.90;94117.00;;;;7400895;19;20148;-75
2022/12/26 09:27:30;;;;;;;4.70;3.03;;;;;8.90;94131.00;;;;7400847;19;20136;-75
2022/12/26 09:30:05;;;;;;;5.57;2.50;;;;;9.00;94138.00;;;;7396863;19;20153;-75
2022/12/26 09:32:46;;;;;;;2.73;2.40;;;;;9.00;94157.00;;;;7397372;19;20179;-76
2022/12/26 09:35:21;;;;;;;3.00;2.70;;;;;8.70;94161.00;;;;7398937;19;20163;-76
2022/12/26 09:37:48;;;;;;;3.87;2.10;;;;;8.50;94180.00;;;;7398968;19;20799;-75
2022/12/26 09:40:27;;;;;;;2.30;1.97;;;;;8.70;94184.00;;;;7396017;19;20149;-76
2022/12/26 09:43:30;;;;;;;3.40;2.03;;;;;8.60;94181.00;;;;7400210;19;20158;-76
2022/12/26 09:46:09;;;;;;;2.10;1.67;;;;;8.20;94190.00;;;;7400325;19;20144;-75
2022/12/26 09:48:56;;;;;;;2.03;1.50;;;;;8.20;94205.00;;;;7398009;19;20152;-75
2022/12/26 09:51:25;;;;;;;1.87;1.40;;;;;8.10;94210.00;;;;7397649;19;20133;-75
2022/12/26 09:54:03;;;;;;;2.03;1.40;;;;;7.90;94198.00;;;;7398064;19;20169;-74
2022/12/26 09:56:36;;;;;;;1.60;1.50;;;;;8.00;94206.00;;;;7397924;19;20136;-75
2022/12/26 09:59:39;;;;;;;3.10;1.70;;;;;7.90;94188.00;;;;7394442;19;20148;-75
2022/12/26 10:02:20;;;;;;;2.47;2.03;;;;;8.00;94186.00;;;;7394297;19;20148;-75
2022/12/26 10:04:55;;;;;;;0.97;0.97;;;;;8.10;94186.00;;;;7397589;19;20152;-74
2022/12/26 10:08:10;;;;;;;2.07;1.67;;;;;8.00;94169.00;;;;7396373;19;20141;-75
2022/12/26 10:11:00;;;;;;;1.10;0.87;;;;;7.60;94191.00;;;;7390753;19;20141;-76
2022/12/26 10:13:46;;;;;;;1.00;0.97;;;;;7.70;94192.00;;;;7392482;19;20637;-76
2022/12/26 10:16:27;;;;;;;0.70;0.70;;;;;7.80;94196.00;;;;7396809;19;20599;-75
2022/12/26 10:18:57;;;;;;;0.60;0.60;;;;;7.80;94203.00;;;;7393969;19;20137;-75
2022/12/26 10:22:12;;;;;;;1.00;0.90;;;;;7.70;94186.00;;;;7393817;19;20639;-76
2022/12/26 10:24:42;;;;;;;1.20;0.70;;;;;7.80;94183.00;;;;7396212;19;20136;-75
2022/12/26 10:27:17;;;;;;;1.00;0.90;;;;;7.60;94186.00;;;;7394245;19;20626;-76
2022/12/26 10:30:00;;;;;;;0.60;0.60;;;;;7.70;94173.00;;;;7392898;19;20163;-75
2022/12/26 10:32:52;;;;;;;0.50;0.50;;;;;7.50;94186.00;;;;7391618;19;20192;-75
2022/12/26 10:35:32;;;;;;;1.13;0.70;;;;;7.60;94188.00;;;;7391272;19;20467;-76
2022/12/26 10:38:40;;;;;;;1.13;0.60;;;;;7.60;94197.00;;;;7394339;19;20177;-75
2022/12/26 10:41:21;;;;;;;0.60;0.60;;;;;7.60;94191.00;;;;7393977;19;20492;-75
2022/12/26 10:43:56;;;;;;;0.70;0.70;;;;;7.60;94193.00;;;;7392793;19;20148;-75
2022/12/26 10:46:36;;;;;;;1.23;0.80;;;;;7.60;94201.00;;;;7397441;19;20154;-75
2022/12/26 10:49:17;;;;;;;0.97;0.70;;;;;7.70;94201.00;;;;7392836;19;20166;-76
2022/12/26 10:51:45;;;;;;;1.30;0.70;;;;;7.60;94195.00;;;;7394856;19;20136;-75
2022/12/26 10:54:19;;;;;;;0.60;0.60;;;;;7.60;94192.00;;;;7392040;19;20157;-75
2022/12/26 10:56:50;;;;;;;0.77;0.50;;;;;7.50;94185.00;;;;7389954;19;20165;-75
2022/12/26 10:59:23;;;;;;;0.60;0.50;;;;;7.50;94187.00;;;;7387098;19;20133;-75
2022/12/26 11:02:12;;;;;;;0.70;0.67;;;;;7.50;94196.00;;;;7388444;19;20152;-76
2022/12/26 11:05:10;;;;;;;0.50;0.50;;;;;7.50;94176.00;;;;7390112;19;20156;-75
2022/12/26 11:08:34;;;;;;;0.93;0.77;;;;;7.70;94162.00;;;;7393071;19;20132;-75
2022/12/26 11:11:16;;;;;;;0.60;0.50;;;;;7.70;94138.00;;;;7391573;19;20155;-77
2022/12/26 11:13:57;;;;;;;0.70;0.70;;;;;7.60;94136.00;;;;7392894;19;20235;-76
2022/12/26 11:16:33;;;;;;;0.83;0.47;;;;;7.80;94132.00;;;;7394069;19;20153;-75
2022/12/26 11:19:41;;;;;;;0.50;0.50;;;;;7.70;94147.00;;;;7393876;19;20177;-76
2022/12/26 11:22:24;;;;;;;0.60;0.50;;;;;7.70;94140.00;;;;7386920;19;20215;-75
2022/12/26 11:25:11;;;;;;;0.50;0.50;;;;;7.60;94158.00;;;;7389896;19;20594;-74
2022/12/26 11:27:47;;;;;;;0.50;0.40;;;;;7.60;94173.00;;;;7389388;19;20124;-75
2022/12/26 11:30:29;;;;;;;1.17;0.40;;;;;7.60;94181.00;;;;7390543;19;20177;-75
2022/12/26 11:33:28;;;;;;;0.73;0.40;;;;;7.70;94188.00;;;;7392179;19;20231;-75
2022/12/26 11:36:14;;;;;;;0.30;0.30;;;;;7.60;94177.00;;;;7390499;19;20182;-76
2022/12/26 11:39:02;;;;;;;0.67;0.60;;;;;7.50;94148.00;;;;7394244;19;20148;-75
2022/12/26 11:41:40;;;;;;;0.60;0.60;;;;;7.50;94172.00;;;;7394982;19;20136;-75
2022/12/26 11:44:11;;;;;;;1.53;1.43;;;;;7.50;94168.00;;;;7392538;19;20156;-74
2022/12/26 11:46:48;;;;;;;0.50;0.50;;;;;7.50;94158.00;;;;7395367;19;20152;-75
2022/12/26 11:49:27;;;;;;;0.50;0.50;;;;;7.60;94144.00;;;;7397829;19;20149;-76
2022/12/26 11:52:21;;;;;;;0.60;0.60;;;;;7.60;94128.00;;;;7394520;19;20467;-75
2022/12/26 11:54:50;;;;;;;0.67;0.60;;;;;7.70;94143.00;;;;7394314;19;20512;-76
2022/12/26 11:57:30;;;;;;;0.50;0.50;;;;;8.00;94131.00;;;;7397600;19;20137;-75
2022/12/26 12:00:23;;;;;;;0.50;0.43;;;;;8.10;94133.00;;;;7393194;19;20483;-75
2022/12/26 12:02:58;;;;;;;0.70;0.70;;;;;8.10;94128.00;;;;7396830;19;20136;-75
2022/12/26 12:05:47;;;;;;;0.60;0.60;;;;;8.10;94132.00;;;;7397336;19;20481;-75
2022/12/26 12:08:27;;;;;;;0.73;0.53;;;;;8.00;94135.00;;;;7397291;19;20153;-74
2022/12/26 12:11:03;;;;;;;1.90;0.50;;;;;8.30;94140.00;;;;7397814;19;20587;-75
2022/12/26 12:13:47;;;;;;;0.57;0.57;;;;;8.20;94131.00;;;;7396823;19;20136;-76
2022/12/26 12:16:41;;;;;;;0.83;0.67;;;;;8.30;94138.00;;;;7399802;19;20166;-75
2022/12/26 12:19:36;;;;;;;0.97;0.67;;;;;8.20;94132.00;;;;7393085;19;20156;-75
2022/12/26 12:22:03;;;;;;;1.03;0.67;;;;;8.10;94148.00;;;;7395150;19;20554;-75
2022/12/26 12:24:49;;;;;;;0.50;0.50;;;;;8.10;94136.00;;;;7391024;19;20129;-75
2022/12/26 12:27:23;;;;;;;1.63;0.70;;;;;8.20;94139.00;;;;7396128;19;20623;-74
2022/12/26 12:30:14;;;;;;;0.67;0.67;;;;;8.10;94129.00;;;;7397168;19;20620;-75
2022/12/26 12:33:14;;;;;;;1.07;0.80;;;;;8.20;94125.00;;;;7395775;19;20180;-74
2022/12/26 12:36:18;;;;;;;0.60;0.60;;;;;8.10;94128.00;;;;7395426;19;20146;-74
2022/12/26 12:38:57;;;;;;;0.70;0.70;;;;;8.00;94102.00;;;;7395596;19;20125;-73
2022/12/26 12:42:02;;;;;;;1.00;0.70;;;;;8.30;94110.00;;;;7396062;19;20619;-71
2022/12/26 12:44:53;;;;;;;0.97;0.70;;;;;8.30;94109.00;;;;7397230;19;20848;-73
2022/12/26 12:47:54;;;;;;;1.10;0.80;;;;;8.30;94109.00;;;;7389585;19;20160;-73
2022/12/26 12:50:39;;;;;;;0.70;0.70;;;;;8.30;94117.00;;;;7394099;19;20149;-72
2022/12/26 12:53:34;;;;;;;0.70;0.70;;;;;8.30;94125.00;;;;7394431;19;20148;-72
2022/12/26 12:56:17;;;;;;;2.67;0.80;;;;;8.20;94117.00;;;;7389256;19;20149;-73
2022/12/26 12:59:04;;;;;;;0.73;0.63;;;;;8.30;94120.00;;;;7387938;19;20170;-74
2022/12/26 13:01:41;;;;;;;0.83;0.77;;;;;8.10;94120.00;;;;7390823;19;20124;-73
2022/12/26 13:04:41;;;;;;;1.63;0.60;;;;;8.30;94113.00;;;;7386705;19;20519;-73
2022/12/26 13:07:25;;;;;;;0.50;0.50;;;;;8.20;94124.00;;;;7389687;19;20693;-75
2022/12/26 13:10:03;;;;;;;0.80;0.80;;;;;8.20;94107.00;;;;7387970;19;20156;-73
2022/12/26 13:12:35;;;;;;;0.77;0.77;;;;;8.40;94084.00;;;;7391265;19;20564;-74
2022/12/26 13:15:32;;;;;;;1.37;0.80;;;;;8.20;94086.00;;;;7383237;19;20770;-74
2022/12/26 13:18:14;;;;;;;2.80;1.90;;;;;8.30;94094.00;;;;7385007;19;20129;-74
2022/12/26 13:20:56;;;;;;;1.57;1.47;;;;;8.20;94088.00;;;;7387445;19;20153;-75
2022/12/26 13:26:38;;;;;;;1.97;1.00;;;;;8.30;94091.00;;;;7386411;19;20220;-75
2022/12/26 13:29:32;;;;;;;0.80;0.80;;;;;8.20;94090.00;;;;7388444;19;20125;-73
2022/12/26 13:32:31;;;;;;;1.20;0.80;;;;;8.20;94090.00;;;;7384075;19;20176;-74
2022/12/26 13:35:05;;;;;;;0.70;0.70;;;;;8.20;94089.00;;;;7383217;19;20156;-74
2022/12/26 13:37:39;;;;;;;0.60;0.60;;;;;8.30;94081.00;;;;7383894;19;20144;-73
2022/12/26 13:40:16;;;;;;;2.03;0.83;;;;;8.10;94099.00;;;;7384213;19;20141;-74
2022/12/26 13:45:49;;;;;;;3.73;1.00;;;;;8.30;94077.00;;;;7389889;19;20180;-74
2022/12/26 13:48:28;;;;;;;1.47;0.90;;;;;8.30;94079.00;;;;7387591;19;20729;-74
2022/12/26 13:51:01;;;;;;;1.30;0.77;;;;;8.30;94075.00;;;;7384424;19;20623;-75
2022/12/26 13:53:39;;;;;;;1.27;0.90;;;;;8.30;94074.00;;;;7389358;19;20161;-74
2022/12/26 13:56:17;;;;;;;0.80;0.80;;;;;8.30;94078.00;;;;7387318;19;20804;-74
2022/12/26 13:59:27;;;;;;;1.00;0.90;;;;;8.30;94084.00;;;;7396096;19;20145;-74
2022/12/26 14:02:16;;;;;;;1.17;1.00;;;;;8.20;94078.00;;;;7393928;19;20157;-74
2022/12/26 14:05:35;;;;;;;1.53;1.07;;;;;8.30;94088.00;;;;7393156;19;20129;-74
2022/12/26 14:08:32;;;;;;;1.20;0.90;;;;;8.30;94086.00;;;;7389369;19;20165;-74
2022/12/26 14:11:35;;;;;;;1.17;0.90;;;;;8.40;94080.00;;;;7396407;19;20125;-73
2022/12/26 14:14:38;;;;;;;1.00;0.90;;;;;8.20;94093.00;;;;7400791;19;20156;-73
2022/12/26 14:17:26;;;;;;;1.33;0.93;;;;;8.20;94099.00;;;;7402269;19;20136;-74
2022/12/26 14:20:14;;;;;;;0.80;0.80;;;;;8.30;94090.00;;;;7401187;19;20152;-73
2022/12/26 14:23:25;;;;;;;1.17;0.90;;;;;8.30;94077.00;;;;7402459;19;20148;-74
2022/12/26 14:26:04;;;;;;;0.80;0.80;;;;;8.30;94076.00;;;;7401774;19;20155;-73
2022/12/26 14:29:16;;;;;;;1.37;0.70;;;;;8.20;94077.00;;;;7400876;19;20169;-73
2022/12/26 14:31:59;;;;;;;3.10;0.83;;;;;8.20;94067.00;;;;7399813;19;20176;-74
2022/12/26 14:35:05;;;;;;;2.50;0.90;;;;;8.00;94060.00;;;;7401810;19;20133;-73
2022/12/26 14:38:09;;;;;;;0.67;0.67;;;;;8.00;94083.00;;;;7401096;19;20185;-73
2022/12/26 14:41:06;;;;;;;1.50;1.00;;;;;8.00;94069.00;;;;7397489;19;20155;-73
2022/12/26 14:43:37;;;;;;;1.87;1.00;;;;;8.10;94056.00;;;;7400857;19;20148;-73
2022/12/26 14:46:29;;;;;;;2.47;1.10;;;;;7.90;94073.00;;;;7399300;19;20156;-73
2022/12/26 14:49:34;;;;;;;1.40;0.73;;;;;7.90;94045.00;;;;7399837;19;20580;-72
2022/12/26 14:52:42;;;;;;;1.57;1.10;;;;;8.00;94036.00;;;;7400779;19;20189;-72
2022/12/26 14:55:41;;;;;;;1.80;0.90;;;;;8.00;94031.00;;;;7398120;19;20141;-71
2022/12/26 14:58:30;;;;;;;2.83;1.00;;;;;7.90;94041.00;;;;7400695;19;20137;-73
2022/12/26 15:01:14;;;;;;;1.13;1.00;;;;;8.00;94064.00;;;;7393172;19;20125;-71
2022/12/26 15:04:22;;;;;;;0.83;0.83;;;;;8.10;94057.00;;;;7399233;19;20137;-72
2022/12/26 15:07:24;;;;;;;1.03;0.97;;;;;8.00;94070.00;;;;7397834;19;20133;-72
2022/12/26 15:09:59;;;;;;;1.00;0.90;;;;;8.00;94055.00;;;;7397087;19;20144;-73
2022/12/26 15:12:51;;;;;;;2.17;1.10;;;;;8.20;94056.00;;;;7395626;19;20664;-72
2022/12/26 15:16:17;;;;;;;1.87;1.10;;;;;8.10;94065.00;;;;7398131;19;20152;-72
2022/12/26 15:18:56;;;;;;;2.77;1.03;;;;;8.10;94080.00;;;;7397032;19;20137;-72
2022/12/26 15:22:07;;;;;;;2.57;1.30;;;;;8.00;94085.00;;;;7397519;19;20156;-71
2022/12/26 15:24:51;;;;;;;1.97;1.10;;;;;8.10;94095.00;;;;7398567;19;20148;-72
2022/12/26 15:27:57;;;;;;;2.17;0.83;;;;;8.10;94079.00;;;;7398780;19;20137;-71
2022/12/26 15:31:01;;;;;;;1.03;0.90;;;;;8.00;94091.00;;;;7397501;19;20156;-73
2022/12/26 15:33:58;;;;;;;1.87;0.80;;;;;7.90;94091.00;;;;7393974;19;20189;-73
2022/12/26 15:36:48;;;;;;;1.40;0.90;;;;;7.90;94079.00;;;;7397723;19;20153;-74
2022/12/26 15:39:42;;;;;;;0.60;0.60;;;;;7.80;94103.00;;;;7400425;19;20148;-75
2022/12/26 15:42:28;;;;;;;0.70;0.70;;;;;7.60;94094.00;;;;7398523;19;20160;-75
2022/12/26 15:45:36;;;;;;;1.00;0.70;;;;;7.50;94084.00;;;;7398456;19;20615;-75
2022/12/26 15:48:36;;;;;;;0.90;0.80;;;;;7.40;94099.00;;;;7398183;19;20151;-75
2022/12/26 15:51:12;;;;;;;1.37;0.87;;;;;7.40;94076.00;;;;7400238;19;20129;-75
2022/12/26 15:53:59;;;;;;;0.97;0.80;;;;;7.40;94088.00;;;;7399694;19;20160;-74